Taiki Maru — JI3464 — position and weather

sailwx.info

Track history (hours):
 
Tides and Currents Weather Stations Pressure Air Temp Water Temp Dewpoint Dewpoint Depression Visibility Wind Speed Wind Dir Waves Ship Positions

Taiki Maru

Last reported at 2014-Oct-30 06:10 UTC. Time now 2014-Nov-01 13:23 UTC.
Position N 34°01' E 130°51'.

Length 93 m; draft 5 m.

Type: Cargo ship. MMSI: 431300622.

Date/timePositionNaut miles runAvg speedWind from/ knotsBaromVisibWave heightAir tempDewpointWater temp
2014-Oct-30 06:10N 34°01' E 130°51'2513.1
2014-Oct-30 04:16N 33°55' E 130°21'1013.7
2014-Oct-30 03:32N 33°49' E 130°12'1313.5
2014-Oct-30 02:33N 33°42' E 129°58'3 0.1
2014-Oct-28 11:33N 33°44' E 130°00'1512.4
2014-Oct-28 10:20N 33°53' E 130°15'  
2014-Oct-23 05:13N 33°55' E 130°20'912.6
2014-Oct-23 04:33N 33°50' E 130°12'1313.0
2014-Oct-23 03:33N 33°43' E 129°59'  
2014-Oct-20 21:29N 33°44' E 129°60'1312.4
2014-Oct-20 20:27N 33°51' E 130°12'  
Track history (hours):
 
Tides and Currents Weather Stations Pressure Air Temp Water Temp Dewpoint Dewpoint Depression Visibility Wind Speed Wind Dir Waves Ship Positions

Taiki Maru

Last reported at 2014-Oct-30 06:10 UTC. Time now 2014-Nov-01 13:23 UTC.
Position N 34°01' E 130°51'.

Length 93 m; draft 5 m.

Type: Cargo ship. MMSI: 431300622.

Date/timePositionNaut miles runAvg speedWind from/ knotsBaromVisibWave heightAir tempDewpointWater temp
2014-Oct-30 06:10N 34°01' E 130°51'2513.1
2014-Oct-30 04:16N 33°55' E 130°21'1013.7
2014-Oct-30 03:32N 33°49' E 130°12'1313.5
2014-Oct-30 02:33N 33°42' E 129°58'3 0.1
2014-Oct-28 11:33N 33°44' E 130°00'1512.4
2014-Oct-28 10:20N 33°53' E 130°15'  
2014-Oct-23 05:13N 33°55' E 130°20'912.6
2014-Oct-23 04:33N 33°50' E 130°12'1313.0
2014-Oct-23 03:33N 33°43' E 129°59'  
2014-Oct-20 21:29N 33°44' E 129°60'1312.4
2014-Oct-20 20:27N 33°51' E 130°12'  

Dump ship's entire track history